Time;durP1;ratioP1;P1;durP2;ratioP2;P2;SDS_P1;SDS_P2;PMS_P1;PMS_P2;Temp;Humidity;BMP_temperature;BMP_pressure;BME280_temperature;BME280_humidity;BME280_pressure;Samples;Min_cycle;Max_cycle;Signal;HPM_P1;HPM_P2
2021/09/28 04:17:01;;;;;;;3.63;1.13;;;;;;;12.06;100.00;99537.69;5274717;23;20510;-74
2021/09/28 04:19:26;;;;;;;2.63;1.30;;;;;;;12.00;100.00;99538.63;5012257;28;20284;-74
2021/09/28 04:21:52;;;;;;;3.00;1.17;;;;;;;12.21;100.00;99541.84;5011969;28;20032;-74
2021/09/28 04:24:17;;;;;;;3.20;1.05;;;;;;;12.30;100.00;99542.59;5012239;28;20463;-74
2021/09/28 04:26:43;;;;;;;5.07;1.42;;;;;;;12.42;100.00;99540.69;5012152;28;20022;-74
2021/09/28 04:29:08;;;;;;;5.32;1.67;;;;;;;12.37;100.00;99543.34;4996793;28;20041;-72
2021/09/28 04:31:34;;;;;;;4.18;1.10;;;;;;;12.46;100.00;99538.03;4998563;28;20034;-72
2021/09/28 04:33:59;;;;;;;4.68;1.52;;;;;;;12.59;100.00;99539.59;4993021;28;20034;-72
2021/09/28 04:36:24;;;;;;;1.95;1.30;;;;;;;12.52;100.00;99538.00;4999641;28;20025;-72
2021/09/28 04:38:50;;;;;;;3.83;1.33;;;;;;;12.52;100.00;99548.38;4992087;28;20056;-72
2021/09/28 04:41:16;;;;;;;4.32;1.40;;;;;;;12.47;100.00;99549.31;5002312;28;20022;-72
2021/09/28 04:43:42;;;;;;;6.85;1.52;;;;;;;12.32;100.00;99545.16;4998480;28;20064;-72
2021/09/28 04:46:07;;;;;;;3.22;1.40;;;;;;;12.28;100.00;99548.66;4991724;28;20058;-72
2021/09/28 04:48:33;;;;;;;5.25;1.67;;;;;;;12.43;100.00;99548.50;4992531;28;20029;-73
2021/09/28 04:50:58;;;;;;;8.13;1.35;;;;;;;12.73;100.00;99547.22;4997916;28;20424;-72
2021/09/28 04:53:24;;;;;;;4.65;1.30;;;;;;;13.13;99.56;99541.41;5000702;28;20530;-79
2021/09/28 04:55:54;;;;;;;11.80;5.47;;;;;;;12.99;97.24;99549.41;4997958;28;20061;-77
2021/09/28 04:58:20;;;;;;;3.47;1.75;;;;;;;13.07;98.05;99547.56;5000196;28;20045;-77
2021/09/28 05:00:46;;;;;;;4.43;1.63;;;;;;;12.89;98.94;99544.38;5003109;28;20368;-77
2021/09/28 05:03:11;;;;;;;5.28;2.17;;;;;;;13.13;98.57;99544.84;5000672;28;20036;-78
2021/09/28 05:05:36;;;;;;;3.42;1.98;;;;;;;13.19;96.29;99543.03;5002209;28;20022;-77
2021/09/28 05:08:02;;;;;;;5.28;2.35;;;;;;;13.30;96.74;99548.97;5004468;28;20026;-77
2021/09/28 05:10:27;;;;;;;4.03;2.13;;;;;;;13.17;95.96;99552.63;5001072;28;20022;-77
2021/09/28 05:12:52;;;;;;;3.88;2.50;;;;;;;13.07;96.73;99550.16;5005389;28;20459;-77
2021/09/28 05:15:18;;;;;;;9.80;2.80;;;;;;;12.98;95.53;99560.72;5004966;28;20022;-77
2021/09/28 05:17:43;;;;;;;5.65;2.65;;;;;;;12.99;95.98;99562.44;5002892;28;20026;-77
2021/09/28 05:20:09;;;;;;;6.57;3.13;;;;;;;13.06;94.74;99564.06;5003439;28;20026;-77
2021/09/28 05:22:34;;;;;;;5.03;2.60;;;;;;;12.95;96.58;99563.34;5000425;28;20030;-77
2021/09/28 05:24:59;;;;;;;2.78;2.50;;;;;;;13.15;96.43;99570.00;5002398;28;20029;-78
2021/09/28 05:27:25;;;;;;;7.75;3.42;;;;;;;13.06;95.99;99571.00;5001727;28;20388;-77
2021/09/28 05:29:50;;;;;;;12.93;5.03;;;;;;;13.11;94.67;99574.41;4999902;28;20026;-77
2021/09/28 05:32:15;;;;;;;5.63;4.18;;;;;;;13.00;92.68;99577.16;4998657;28;20443;-77
2021/09/28 05:34:41;;;;;;;8.93;4.07;;;;;;;12.99;93.02;99584.97;5003472;28;20048;-77
2021/09/28 05:37:06;;;;;;;7.03;3.30;;;;;;;13.02;93.19;99583.19;4998450;28;20022;-77
2021/09/28 05:39:32;;;;;;;3.47;3.10;;;;;;;13.05;92.48;99585.78;4999462;28;20022;-77
2021/09/28 05:41:57;;;;;;;3.00;2.75;;;;;;;12.91;93.20;99587.72;4997852;28;20113;-77
2021/09/28 05:44:22;;;;;;;3.30;2.72;;;;;;;12.90;93.82;99591.16;5000011;28;20109;-77
2021/09/28 05:46:48;;;;;;;4.60;2.58;;;;;;;13.02;94.10;99590.16;5001286;28;20128;-77
2021/09/28 05:49:13;;;;;;;2.53;2.33;;;;;;;12.92;93.65;99594.63;4998131;28;20033;-77
2021/09/28 05:51:53;;;;;;;3.15;2.47;;;;;;;12.95;94.27;99594.56;4999660;28;20037;-78
2021/09/28 05:54:20;;;;;;;5.18;2.78;;;;;;;12.95;93.61;99598.91;5004366;28;20101;-77
2021/09/28 05:56:47;;;;;;;5.63;2.50;;;;;;;13.18;93.58;99595.97;5006095;28;20105;-77
2021/09/28 05:59:12;;;;;;;5.03;2.45;;;;;;;13.08;92.63;99600.47;4999508;28;20478;-77
2021/09/28 06:01:38;;;;;;;3.42;2.45;;;;;;;12.96;93.85;99601.50;4996963;28;20130;-77
2021/09/28 06:04:03;;;;;;;4.35;2.90;;;;;;;13.01;93.63;99599.69;5000518;28;20034;-77
2021/09/28 06:06:30;;;;;;;5.35;2.72;;;;;;;12.81;92.54;99607.78;5000161;28;20022;-77
2021/09/28 06:08:59;;;;;;;4.30;2.50;;;;;;;12.78;93.11;99602.63;5000086;28;20030;-77
2021/09/28 06:11:25;;;;;;;4.00;2.65;;;;;;;13.21;93.97;99591.59;4997148;28;20022;-77
2021/09/28 06:13:51;;;;;;;3.10;2.65;;;;;;;13.22;93.00;99592.47;4999197;28;20038;-77
2021/09/28 06:16:17;;;;;;;4.35;2.53;;;;;;;13.18;91.17;99591.63;5006012;28;20025;-77
2021/09/28 06:18:42;;;;;;;3.28;2.20;;;;;;;13.19;90.91;99598.53;5005964;28;20083;-77
2021/09/28 06:21:07;;;;;;;3.78;2.83;;;;;;;12.96;91.33;99596.31;5003935;28;20101;-77
2021/09/28 06:23:33;;;;;;;4.97;2.58;;;;;;;12.93;91.82;99600.69;4999631;28;20532;-77
2021/09/28 06:25:58;;;;;;;12.85;2.80;;;;;;;13.24;92.15;99595.91;5000940;28;20579;-77
2021/09/28 06:28:24;;;;;;;9.57;2.70;;;;;;;13.31;90.57;99594.94;4994694;28;20113;-77
2021/09/28 06:30:49;;;;;;;6.68;2.55;;;;;;;13.53;89.27;99593.69;5002403;28;20132;-77
2021/09/28 06:33:14;;;;;;;8.30;3.25;;;;;;;13.49;88.84;99586.84;4999020;28;20033;-77
2021/09/28 06:35:40;;;;;;;3.88;2.08;;;;;;;13.65;89.13;99597.00;4998893;28;20026;-77
2021/09/28 06:38:06;;;;;;;2.60;2.20;;;;;;;13.54;90.36;99605.84;4996456;28;20038;-78
2021/09/28 06:40:33;;;;;;;2.60;2.30;;;;;;;13.72;87.45;99598.59;4996601;28;20022;-77
2021/09/28 06:42:58;;;;;;;3.55;2.20;;;;;;;13.29;89.96;99596.69;5001977;28;20049;-77
2021/09/28 06:45:24;;;;;;;3.05;2.33;;;;;;;13.36;88.92;99593.13;5003483;28;20041;-77
2021/09/28 06:47:49;;;;;;;6.18;2.70;;;;;;;13.79;88.50;99589.78;5003490;28;20045;-77
2021/09/28 06:50:14;;;;;;;5.18;2.53;;;;;;;13.99;86.44;99592.88;4996483;28;20069;-77
2021/09/28 06:52:42;;;;;;;3.20;2.70;;;;;;;14.11;86.04;99587.41;4998924;28;20510;-77
2021/09/28 06:55:08;;;;;;;2.30;2.10;;;;;;;14.25;84.64;99587.16;4996500;28;20053;-77
2021/09/28 06:57:33;;;;;;;2.78;2.42;;;;;;;14.49;83.09;99584.97;4994163;28;20074;-77
2021/09/28 06:59:59;;;;;;;6.90;3.30;;;;;;;14.21;84.88;99593.31;4993102;28;20022;-77
2021/09/28 07:02:24;;;;;;;3.33;2.38;;;;;;;14.14;84.08;99592.59;4994503;28;20023;-77
2021/09/28 07:04:50;;;;;;;4.50;2.17;;;;;;;14.27;83.61;99587.16;4998781;28;20026;-78
2021/09/28 07:07:15;;;;;;;4.30;2.22;;;;;;;14.41;82.61;99585.13;5006391;28;20030;-78
2021/09/28 07:09:40;;;;;;;6.43;2.33;;;;;;;14.39;82.64;99579.06;5000382;28;20236;-78
2021/09/28 07:12:06;;;;;;;7.18;2.42;;;;;;;14.78;81.98;99563.47;4998506;28;20026;-78
2021/09/28 07:14:31;;;;;;;7.32;2.15;;;;;;;15.15;78.95;99568.72;4997997;28;20505;-78
2021/09/28 07:16:57;;;;;;;4.47;2.13;;;;;;;15.33;78.86;99567.44;5001982;28;20471;-78
2021/09/28 07:19:22;;;;;;;5.95;1.83;;;;;;;15.37;77.50;99563.81;5002205;28;20018;-78
2021/09/28 07:21:47;;;;;;;2.42;1.80;;;;;;;15.12;79.02;99564.41;4989669;28;20033;-77
2021/09/28 07:24:13;;;;;;;2.50;1.73;;;;;;;15.22;78.04;99564.19;4993401;28;20111;-77
2021/09/28 07:26:39;;;;;;;2.85;1.42;;;;;;;14.88;80.55;99559.78;4998434;28;20025;-77
2021/09/28 07:29:04;;;;;;;5.75;1.80;;;;;;;15.03;79.89;99558.56;4995568;28;20030;-77
2021/09/28 07:31:29;;;;;;;1.48;1.38;;;;;;;15.15;78.09;99553.91;4997618;28;20502;-77
2021/09/28 07:33:54;;;;;;;2.83;1.50;;;;;;;15.23;78.50;99555.47;4996702;28;20030;-77
2021/09/28 07:36:20;;;;;;;3.95;1.80;;;;;;;15.12;78.88;99559.19;4999902;28;20041;-77
2021/09/28 07:38:45;;;;;;;4.57;1.60;;;;;;;15.27;77.40;99551.88;4999706;28;20025;-77
2021/09/28 07:41:11;;;;;;;3.97;1.65;;;;;;;15.43;77.92;99558.47;5004212;28;20092;-77
2021/09/28 07:43:36;;;;;;;5.50;1.90;;;;;;;15.49;78.12;99563.53;4999428;28;20022;-77
2021/09/28 07:46:02;;;;;;;5.75;1.52;;;;;;;15.25;76.52;99565.00;5000038;28;20022;-78
2021/09/28 07:48:27;;;;;;;2.05;1.42;;;;;;;15.23;77.58;99565.91;5001870;28;20030;-78
2021/09/28 07:50:53;;;;;;;4.63;1.50;;;;;;;15.34;76.20;99575.22;4997441;28;20026;-77
2021/09/28 07:53:18;;;;;;;1.40;1.20;;;;;;;15.40;74.85;99574.19;4997338;28;20014;-77
2021/09/28 07:55:44;;;;;;;3.40;1.30;;;;;;;14.89;77.55;99578.03;4997561;28;20014;-77
2021/09/28 07:58:09;;;;;;;5.47;1.95;;;;;;;14.60;76.55;99580.38;4994498;28;20026;-77
2021/09/28 08:00:35;;;;;;;1.70;1.60;;;;;;;15.12;74.62;99577.47;4993599;28;20478;-78
2021/09/28 08:03:01;;;;;;;3.03;1.90;;;;;;;15.00;75.13;99585.59;4997889;28;20034;-77
2021/09/28 08:05:26;;;;;;;1.83;1.73;;;;;;;15.40;74.11;99579.41;4997104;28;20029;-77
2021/09/28 08:07:51;;;;;;;5.80;1.80;;;;;;;15.24;73.57;99578.09;4992229;28;20037;-78
2021/09/28 08:10:17;;;;;;;3.88;1.65;;;;;;;14.55;75.81;99583.13;4990133;28;20101;-77
2021/09/28 08:12:42;;;;;;;2.22;1.67;;;;;;;14.57;75.92;99578.72;4998539;28;20025;-77
2021/09/28 08:15:08;;;;;;;4.63;1.90;;;;;;;16.07;71.53;99577.69;5001159;28;20463;-77
2021/09/28 08:17:34;;;;;;;3.53;1.98;;;;;;;20.20;57.58;99557.63;5003205;28;20026;-78
2021/09/28 08:19:59;;;;;;;5.55;1.48;;;;;;;22.36;49.06;99562.03;5002209;28;20024;-78
2021/09/28 08:22:25;;;;;;;2.05;1.05;;;;;;;18.32;57.34;99582.78;5001636;28;20022;-78
2021/09/28 08:24:54;;;;;;;3.15;1.35;;;;;;;18.88;56.01;99578.03;5003137;28;20129;-78
2021/09/28 08:30:08;;;;;;;2.13;1.10;;;;;;;21.03;52.29;99565.22;5008134;28;20053;-79
2021/09/28 08:32:34;;;;;;;2.85;1.10;;;;;;;18.65;56.25;99575.41;4999633;28;20026;-78
2021/09/28 08:34:59;;;;;;;2.83;1.20;;;;;;;19.97;54.62;99573.59;4997009;28;20026;-78
2021/09/28 08:37:26;;;;;;;7.10;3.50;;;;;;;21.14;51.56;99562.03;4998667;28;20019;-78
2021/09/28 08:39:53;;;;;;;2.70;1.10;;;;;;;18.12;59.56;99586.97;5003998;28;20030;-78
2021/09/28 08:42:18;;;;;;;2.70;1.42;;;;;;;16.98;62.52;99583.78;4999758;28;20112;-78
2021/09/28 08:44:44;;;;;;;1.20;1.10;;;;;;;16.50;63.17;99584.34;4997485;28;20110;-78
2021/09/28 08:47:09;;;;;;;1.85;1.27;;;;;;;16.00;65.40;99581.38;5001846;28;20695;-77
2021/09/28 08:49:35;;;;;;;2.05;1.30;;;;;;;16.49;63.59;99580.00;5002575;28;20030;-77
2021/09/28 08:52:02;;;;;;;0.82;0.82;;;;;;;16.62;61.87;99580.47;4983945;28;20084;-78
2021/09/28 08:54:28;;;;;;;1.83;1.20;;;;;;;16.59;64.04;99576.22;5000888;28;20117;-78
2021/09/28 08:56:53;;;;;;;6.18;1.10;;;;;;;16.45;63.33;99574.00;4996731;28;20172;-77
2021/09/28 08:59:20;;;;;;;3.40;1.42;;;;;;;18.77;56.82;99564.47;4999146;28;20030;-77
2021/09/28 09:02:08;;;;;;;1.55;0.80;;;;;;;23.66;42.97;99555.59;4998814;28;20085;-78
2021/09/28 09:04:33;;;;;;;1.45;1.10;;;;;;;21.60;46.16;99565.06;4998553;28;20142;-78
2021/09/28 09:06:59;;;;;;;0.80;0.80;;;;;;;19.38;50.97;99572.50;5003155;28;20364;-78
2021/09/28 09:09:24;;;;;;;2.10;0.90;;;;;;;18.93;53.93;99569.97;4995502;28;20026;-78
2021/09/28 09:11:51;;;;;;;2.90;1.30;;;;;;;18.70;54.54;99569.09;4995325;28;20022;-78
2021/09/28 09:14:22;;;;;;;1.15;0.98;;;;;;;20.76;49.23;99562.09;4995060;28;20026;-78
2021/09/28 09:16:55;;;;;;;4.10;1.20;;;;;;;17.65;55.26;99573.75;4999770;28;20476;-78
2021/09/28 09:19:26;;;;;;;2.28;0.85;;;;;;;16.34;59.83;99569.97;4997379;28;20019;-77
2021/09/28 09:21:55;;;;;;;2.35;1.13;;;;;;;16.90;60.74;99565.69;5009090;28;20022;-77
2021/09/28 09:24:44;;;;;;;2.70;1.10;;;;;;;22.10;46.75;99553.69;4998271;28;20487;-78
2021/09/28 09:27:32;;;;;;;0.75;0.75;;;;;;;25.46;40.61;99546.00;4993341;28;20022;-78
2021/09/28 09:30:10;;;;;;;2.13;0.90;;;;;;;25.03;40.09;99550.63;5001170;28;20038;-78
2021/09/28 09:32:59;;;;;;;0.80;0.80;;;;;;;24.61;40.75;99555.06;5003807;28;20356;-78
2021/09/28 09:35:26;;;;;;;1.00;0.93;;;;;;;22.33;44.27;99561.25;5009981;28;20028;-78
2021/09/28 09:38:04;;;;;;;2.95;1.08;;;;;;;18.92;52.44;99573.53;5003103;28;20030;-78
2021/09/28 09:40:52;;;;;;;1.85;1.05;;;;;;;17.66;56.12;99562.34;4995255;28;20022;-77
2021/09/28 09:43:28;;;;;;;1.27;1.17;;;;;;;17.25;58.78;99560.25;5003888;28;20374;-77
2021/09/28 09:46:09;;;;;;;3.70;1.10;;;;;;;16.87;57.80;99559.69;5003637;28;20080;-77
2021/09/28 09:48:34;;;;;;;4.35;1.40;;;;;;;16.90;57.07;99554.38;4996693;28;20443;-78
2021/09/28 09:51:04;;;;;;;3.53;1.00;;;;;;;16.91;56.53;99550.84;5000620;28;20046;-77
2021/09/28 09:53:30;;;;;;;0.93;0.93;;;;;;;17.28;55.01;99540.03;4994155;28;20026;-77
2021/09/28 09:55:55;;;;;;;2.78;1.30;;;;;;;16.48;56.69;99541.66;4999593;28;20021;-77
2021/09/28 09:58:21;;;;;;;2.47;1.00;;;;;;;17.44;53.58;99535.16;5001924;28;20109;-77
2021/09/28 10:00:49;;;;;;;21.60;8.68;;;;;;;18.27;54.07;99532.22;4998444;28;20041;-78
2021/09/28 10:03:15;;;;;;;4.45;1.58;;;;;;;22.55;41.51;99516.03;5000356;28;20030;-75
2021/09/28 10:05:41;;;;;;;2.20;0.90;;;;;;;25.70;36.71;99514.31;5007371;28;20076;-76
2021/09/28 10:08:11;;;;;;;3.35;0.82;;;;;;;27.01;32.68;99503.25;4997987;28;20022;-76
2021/09/28 10:10:37;;;;;;;8.73;3.58;;;;;;;29.32;29.43;99498.38;4995210;28;20026;-73
2021/09/28 10:13:05;;;;;;;1.88;1.10;;;;;;;30.10;28.05;99505.06;4994884;28;20030;-73
2021/09/28 10:15:31;;;;;;;1.25;0.90;;;;;;;28.32;30.29;99501.13;5000677;28;20106;-74
2021/09/28 10:17:56;;;;;;;1.65;1.20;;;;;;;27.62;31.72;99493.34;4994123;28;20037;-73
2021/09/28 10:20:21;;;;;;;2.63;1.17;;;;;;;28.67;29.54;99497.47;4996580;28;20026;-74
2021/09/28 10:22:49;;;;;;;2.73;1.00;;;;;;;29.64;28.30;99496.53;4993416;28;20126;-74
2021/09/28 10:25:22;;;;;;;1.90;0.85;;;;;;;28.34;29.35;99501.06;4999983;28;20273;-74
2021/09/28 10:27:51;;;;;;;3.70;1.33;;;;;;;27.53;30.61;99491.38;5004537;28;20499;-74
2021/09/28 10:30:28;;;;;;;4.93;2.60;;;;;;;24.08;35.95;99503.66;5004402;23;20826;-71
2021/09/28 10:32:55;;;;;;;3.55;1.15;;;;;;;23.12;37.27;99506.75;4984837;28;20282;-72
2021/09/28 10:35:21;;;;;;;1.70;1.20;;;;;;;24.20;36.94;99492.28;4990408;28;20033;-72
2021/09/28 10:37:49;;;;;;;0.90;0.90;;;;;;;24.76;34.82;99494.94;4983293;28;20017;-72
2021/09/28 10:40:14;;;;;;;1.33;1.23;;;;;;;24.07;35.74;99491.31;4988323;28;20030;-72
2021/09/28 10:42:50;;;;;;;1.13;1.02;;;;;;;23.99;34.74;99483.03;4978932;28;20041;-72
2021/09/28 10:45:20;;;;;;;1.00;1.00;;;;;;;25.85;33.03;99481.41;4977483;28;20066;-72
2021/09/28 10:47:53;;;;;;;2.42;1.10;;;;;;;24.93;34.25;99475.28;4975225;28;20031;-72
2021/09/28 10:50:22;;;;;;;1.17;1.05;;;;;;;25.29;32.95;99478.19;4974847;28;20026;-72
2021/09/28 10:52:47;;;;;;;;;;;;;;;26.15;33.04;99466.91;4976294;28;20113;-72
2021/09/28 10:55:13;;;;;;;1.88;1.10;;;;;;;27.15;29.88;99463.19;4974582;28;19949;-72
2021/09/28 10:57:53;;;;;;;1.25;1.15;;;;;;;24.88;34.87;99468.47;4973930;28;20037;-72
2021/09/28 11:00:19;;;;;;;1.92;1.10;;;;;;;21.83;38.89;99475.97;4972081;28;20019;-72
2021/09/28 11:02:56;;;;;;;1.70;1.20;;;;;;;21.65;41.78;99470.72;4973293;28;20023;-72
2021/09/28 11:05:28;;;;;;;1.65;1.27;;;;;;;20.47;44.09;99465.19;4970640;28;20550;-72
2021/09/28 11:07:53;;;;;;;2.20;1.30;;;;;;;20.82;43.50;99454.72;4973297;28;20038;-72
2021/09/28 11:10:18;;;;;;;1.95;1.40;;;;;;;19.88;46.47;99460.88;4973433;28;20014;-72
2021/09/28 11:12:44;;;;;;;3.72;1.80;;;;;;;19.03;47.97;99461.00;4973498;28;20526;-72
2021/09/28 11:15:10;;;;;;;2.75;1.52;;;;;;;17.93;50.53;99465.28;4958197;28;20138;-71
2021/09/28 11:17:35;;;;;;;2.53;1.70;;;;;;;18.23;50.19;99458.91;4954051;28;20059;-71
2021/09/28 11:20:01;;;;;;;3.10;1.70;;;;;;;18.82;49.77;99456.66;4953706;28;20043;-73
2021/09/28 11:22:27;;;;;;;2.10;1.30;;;;;;;18.79;50.21;99447.09;4953719;28;20019;-73
2021/09/28 11:24:52;;;;;;;2.65;1.80;;;;;;;17.82;52.07;99454.34;4954005;28;20522;-73
2021/09/28 11:27:18;;;;;;;2.40;1.88;;;;;;;18.77;50.71;99442.84;4953735;28;20058;-73
2021/09/28 11:29:44;;;;;;;2.10;1.90;;;;;;;18.16;52.13;99431.19;4953805;28;20086;-73
2021/09/28 11:32:10;;;;;;;2.78;2.00;;;;;;;19.23;49.67;99428.63;4952424;28;20031;-73
2021/09/28 11:34:38;;;;;;;1.48;1.30;;;;;;;20.32;46.10;99423.78;4953757;28;20552;-73
2021/09/28 11:37:06;;;;;;;2.97;1.98;;;;;;;21.58;42.53;99424.50;4953735;28;20056;-73
2021/09/28 11:39:43;;;;;;;1.90;1.35;;;;;;;20.25;44.81;99433.72;4953869;28;20485;-73
2021/09/28 11:42:10;;;;;;;2.35;1.50;;;;;;;20.43;44.59;99427.59;4953418;28;20023;-73
2021/09/28 11:44:37;;;;;;;3.30;1.02;;;;;;;20.40;45.95;99416.34;4953421;28;20051;-73
2021/09/28 11:47:14;;;;;;;1.00;1.00;;;;;;;21.08;43.46;99409.50;4951489;28;20046;-73
2021/09/28 11:49:52;;;;;;;1.65;1.55;;;;;;;20.69;43.87;99407.91;4947410;29;20493;-73
2021/09/28 11:52:17;;;;;;;1.52;1.30;;;;;;;19.60;46.81;99409.53;4951470;28;20035;-73
2021/09/28 11:54:45;;;;;;;3.10;1.40;;;;;;;19.76;44.36;99400.00;4951665;28;20055;-73
2021/09/28 11:57:12;;;;;;;1.58;1.02;;;;;;;19.56;45.95;99392.13;4951214;28;20039;-73
2021/09/28 11:59:38;;;;;;;2.58;1.27;;;;;;;20.81;43.67;99390.66;4951794;28;20481;-73
2021/09/28 12:02:03;;;;;;;1.45;1.20;;;;;;;21.23;44.16;99382.34;4951367;28;20096;-73
2021/09/28 12:07:07;;;;;;;1.50;1.40;;;;;;;21.68;43.39;99377.41;4953217;28;20035;-73
2021/09/28 12:09:35;;;;;;;2.17;1.83;;;;;;;21.87;43.33;99378.09;4953237;28;20045;-73
2021/09/28 12:12:07;;;;;;;1.17;1.08;;;;;;;21.52;42.16;99372.09;4952572;28;20519;-73
2021/09/28 12:14:34;;;;;;;2.05;1.63;;;;;;;21.48;43.04;99371.41;4953134;28;20024;-73
2021/09/28 12:17:23;;;;;;;1.48;1.20;;;;;;;22.12;43.17;99366.22;4950180;28;20031;-73
2021/09/28 12:19:54;;;;;;;2.53;1.55;;;;;;;22.66;41.76;99364.84;4949452;29;20035;-73
2021/09/28 12:22:42;;;;;;;1.30;1.20;;;;;;;22.69;40.75;99372.63;4951733;28;20022;-73
2021/09/28 12:25:24;;;;;;;1.98;1.25;;;;;;;22.21;40.50;99355.16;4950312;28;20373;-72
2021/09/28 12:27:54;;;;;;;2.95;1.33;;;;;;;20.76;43.30;99366.34;4953222;28;20035;-73
2021/09/28 12:30:19;;;;;;;2.08;1.50;;;;;;;20.98;44.48;99356.44;4950359;29;20019;-73
2021/09/28 12:32:48;;;;;;;2.75;1.60;;;;;;;20.60;43.88;99349.56;4952792;28;20031;-73
2021/09/28 12:35:14;;;;;;;1.95;1.35;;;;;;;20.44;43.72;99350.31;4952760;29;20035;-73
2021/09/28 12:37:56;;;;;;;2.05;1.35;;;;;;;20.33;43.63;99341.25;4952946;28;20034;-73
2021/09/28 12:40:22;;;;;;;1.85;1.58;;;;;;;20.65;43.46;99340.53;4952788;28;20023;-73
2021/09/28 12:43:03;;;;;;;2.30;1.52;;;;;;;20.35;42.99;99334.09;4952460;28;20384;-73
2021/09/28 12:45:40;;;;;;;2.75;1.20;;;;;;;20.13;44.96;99335.16;4952199;28;20027;-73
2021/09/28 12:48:05;;;;;;;4.95;1.27;;;;;;;20.77;43.47;99331.16;4952723;28;20027;-73
2021/09/28 12:50:33;;;;;;;1.70;1.13;;;;;;;20.91;42.92;99322.56;4952200;28;20054;-73
2021/09/28 12:53:05;;;;;;;1.40;1.30;;;;;;;20.46;42.32;99322.16;4952479;28;20035;-73
2021/09/28 12:55:37;;;;;;;0.93;0.90;;;;;;;20.54;44.60;99319.13;4952516;28;20515;-73
2021/09/28 12:58:10;;;;;;;1.70;1.20;;;;;;;20.70;45.71;99308.72;4952552;28;20032;-73
2021/09/28 13:00:36;;;;;;;0.80;0.80;;;;;;;21.16;43.64;99307.16;4952512;28;20054;-73
2021/09/28 13:03:05;;;;;;;4.20;1.50;;;;;;;18.81;47.49;99313.13;4952542;28;20027;-73
2021/09/28 13:05:33;;;;;;;1.53;1.30;;;;;;;19.11;47.92;99303.94;4952539;28;20027;-73
2021/09/28 13:07:59;;;;;;;1.75;1.00;;;;;;;19.04;49.18;99305.09;4948806;28;20027;-73
2021/09/28 13:10:25;;;;;;;0.88;0.88;;;;;;;18.82;49.10;99304.34;4952379;28;20147;-73
2021/09/28 13:12:51;;;;;;;2.15;0.93;;;;;;;19.23;48.42;99300.75;4953337;28;20098;-73
2021/09/28 13:15:18;;;;;;;1.23;0.88;;;;;;;18.81;50.06;99300.00;4953992;29;20066;-72
2021/09/28 13:17:44;;;;;;;1.75;0.88;;;;;;;18.29;50.06;99294.31;4954828;28;20117;-73
2021/09/28 13:20:10;;;;;;;0.70;0.65;;;;;;;18.08;50.79;99291.63;4955802;28;20019;-72
2021/09/28 13:22:37;;;;;;;1.77;0.88;;;;;;;18.67;50.15;99285.69;4954714;29;20469;-73
2021/09/28 13:25:04;;;;;;;1.15;1.15;;;;;;;18.56;48.91;99281.78;4954885;28;20046;-73
2021/09/28 13:27:29;;;;;;;1.45;1.15;;;;;;;18.77;49.19;99275.66;4956001;28;20019;-73
2021/09/28 13:29:55;;;;;;;1.30;1.20;;;;;;;19.26;48.72;99279.59;4955804;28;20034;-74
2021/09/28 13:32:21;;;;;;;2.38;1.10;;;;;;;19.29;48.23;99269.84;4955340;28;20027;-73
2021/09/28 13:34:46;;;;;;;1.33;1.00;;;;;;;19.36;47.97;99268.66;4954791;28;20410;-73
2021/09/28 13:37:12;;;;;;;3.13;1.13;;;;;;;19.25;47.50;99272.63;4955373;28;20055;-73
2021/09/28 13:39:37;;;;;;;1.10;0.95;;;;;;;19.03;47.85;99273.66;4955595;28;20031;-73
2021/09/28 13:42:03;;;;;;;1.45;0.90;;;;;;;18.84;48.10;99256.09;4955366;28;20023;-73
2021/09/28 13:44:28;;;;;;;2.25;0.98;;;;;;;19.12;48.28;99260.97;4955760;28;20114;-73
2021/09/28 13:46:53;;;;;;;1.95;1.20;;;;;;;19.31;47.22;99262.75;4955524;28;20097;-73
2021/09/28 13:49:19;;;;;;;3.60;0.98;;;;;;;19.26;48.22;99260.34;4955429;28;20046;-73
2021/09/28 13:51:44;;;;;;;1.15;1.02;;;;;;;19.36;46.63;99263.41;4955429;28;20027;-73
2021/09/28 13:54:10;;;;;;;0.80;0.80;;;;;;;19.44;47.87;99250.78;4955161;28;20178;-73
2021/09/28 13:56:35;;;;;;;3.08;1.77;;;;;;;19.65;46.57;99247.16;4955434;28;20041;-73
2021/09/28 13:59:00;;;;;;;0.68;0.68;;;;;;;19.44;48.07;99250.78;4953841;29;20453;-73
2021/09/28 14:01:27;;;;;;;1.05;0.68;;;;;;;19.03;47.31;99253.50;4952444;29;20054;-73
2021/09/28 14:03:52;;;;;;;1.90;1.02;;;;;;;18.93;48.70;99244.34;4955344;28;20110;-73
2021/09/28 14:06:18;;;;;;;1.38;0.70;;;;;;;19.18;47.84;99238.81;4954919;28;20122;-73
2021/09/28 14:08:46;;;;;;;1.67;1.00;;;;;;;19.30;48.43;99242.69;4955411;28;20110;-73
2021/09/28 14:11:15;;;;;;;0.80;0.60;;;;;;;19.46;47.93;99238.41;4954872;28;20663;-73
2021/09/28 14:13:41;;;;;;;1.85;0.70;;;;;;;18.94;48.06;99244.25;4955159;29;20039;-73
2021/09/28 14:16:06;;;;;;;0.82;0.82;;;;;;;18.89;48.05;99234.88;4955182;28;20053;-73
2021/09/28 14:18:32;;;;;;;1.33;0.80;;;;;;;18.81;48.51;99229.09;4954683;28;20051;-72
2021/09/28 14:20:59;;;;;;;0.70;0.70;;;;;;;19.10;48.68;99230.44;4950608;28;20035;-72
2021/09/28 14:23:25;;;;;;;0.60;0.60;;;;;;;18.97;50.05;99230.16;4954491;28;20037;-72
2021/09/28 14:25:51;;;;;;;0.95;0.90;;;;;;;18.53;49.71;99225.06;4953890;28;20511;-72
2021/09/28 14:28:16;;;;;;;2.15;0.95;;;;;;;17.78;50.56;99224.69;4954839;28;20077;-71
2021/09/28 14:30:42;;;;;;;0.80;0.80;;;;;;;18.39;50.66;99219.53;4954515;28;20027;-72
2021/09/28 14:33:07;;;;;;;1.75;0.80;;;;;;;18.75;50.95;99219.72;4954594;28;20058;-72
2021/09/28 14:35:32;;;;;;;1.55;0.82;;;;;;;18.94;49.73;99219.75;4951640;28;20102;-72
2021/09/28 14:37:57;;;;;;;0.73;0.73;;;;;;;18.68;49.67;99213.03;4954549;28;20350;-72
2021/09/28 14:40:23;;;;;;;4.47;0.90;;;;;;;18.54;50.02;99211.00;4953922;28;20031;-72
2021/09/28 14:42:48;;;;;;;0.73;0.73;;;;;;;18.69;50.32;99205.13;4954312;28;20027;-72
2021/09/28 14:45:13;;;;;;;1.92;1.33;;;;;;;18.51;50.30;99205.88;4953694;28;20139;-72
2021/09/28 14:47:39;;;;;;;1.00;0.90;;;;;;;18.61;49.59;99201.94;4953342;28;20412;-72
2021/09/28 14:50:04;;;;;;;2.90;1.05;;;;;;;18.71;50.35;99197.16;4954346;28;20448;-72
2021/09/28 14:52:30;;;;;;;1.40;0.90;;;;;;;18.21;51.07;99198.41;4936271;28;20039;-72
2021/09/28 14:54:55;;;;;;;2.50;0.90;;;;;;;18.49;51.00;99191.97;4952863;29;20058;-72
2021/09/28 14:57:21;;;;;;;1.75;1.08;;;;;;;18.58;52.03;99188.97;4953617;28;20074;-72
2021/09/28 14:59:47;;;;;;;1.58;1.08;;;;;;;18.93;51.57;99191.81;4954309;28;20027;-72
2021/09/28 15:02:12;;;;;;;1.20;0.80;;;;;;;18.53;50.20;99185.69;4954013;28;20035;-72
2021/09/28 15:04:37;;;;;;;2.03;1.00;;;;;;;18.56;50.17;99184.69;4949432;28;20106;-72
2021/09/28 15:07:04;;;;;;;3.05;0.98;;;;;;;18.31;51.25;99182.28;4952159;28;20106;-72
2021/09/28 15:09:31;;;;;;;0.70;0.70;;;;;;;17.90;52.23;99179.66;4954099;29;20055;-72
2021/09/28 15:11:57;;;;;;;0.63;0.60;;;;;;;17.84;52.43;99178.13;4950704;29;20098;-72
2021/09/28 15:14:22;;;;;;;1.02;0.90;;;;;;;18.01;53.27;99179.19;4954265;28;20122;-72
2021/09/28 15:16:48;;;;;;;2.88;0.75;;;;;;;18.11;52.50;99175.25;4953970;28;20054;-72
2021/09/28 15:19:13;;;;;;;0.82;0.80;;;;;;;18.23;52.96;99169.50;4954083;28;20033;-72
2021/09/28 15:21:39;;;;;;;1.23;0.90;;;;;;;18.05;52.38;99171.13;4953098;28;20027;-72
2021/09/28 15:24:05;;;;;;;0.80;0.80;;;;;;;17.90;52.18;99175.25;4951365;28;20418;-72
2021/09/28 15:26:30;;;;;;;4.43;1.20;;;;;;;17.94;52.27;99168.13;4952721;28;20042;-72
2021/09/28 15:28:56;;;;;;;3.60;1.20;;;;;;;17.83;52.80;99173.78;4953818;28;20114;-72
2021/09/28 15:31:29;;;;;;;0.70;0.70;;;;;;;17.87;53.10;99171.91;4952627;28;20077;-72
2021/09/28 15:33:55;;;;;;;1.20;1.00;;;;;;;17.80;53.51;99168.69;4956094;28;20059;-72
2021/09/28 15:36:20;;;;;;;0.80;0.80;;;;;;;17.72;53.05;99166.34;4953696;28;20440;-72
2021/09/28 15:38:52;;;;;;;0.75;0.75;;;;;;;17.73;54.05;99170.69;4953784;28;20054;-72
2021/09/28 15:41:20;;;;;;;1.30;1.00;;;;;;;17.77;53.11;99181.06;4952348;29;20031;-72
2021/09/28 15:43:46;;;;;;;1.17;0.70;;;;;;;17.63;54.24;99171.94;4951069;28;20069;-72
2021/09/28 15:46:12;;;;;;;2.13;1.25;;;;;;;17.68;55.35;99177.00;4953167;28;20019;-72
2021/09/28 15:48:37;;;;;;;1.00;0.98;;;;;;;17.70;55.71;99176.03;4952316;28;20038;-72
2021/09/28 15:51:06;;;;;;;0.68;0.68;;;;;;;17.24;57.67;99178.75;4953342;28;20047;-69
2021/09/28 15:53:33;;;;;;;0.90;0.90;;;;;;;17.30;58.95;99173.28;4951710;28;20051;-73
2021/09/28 15:56:00;;;;;;;1.40;0.90;;;;;;;17.19;58.23;99171.94;4953226;28;20015;-72